sensor_id;sensor_type;location;lat;lon;timestamp;P1;durP1;ratioP1;P2;durP2;ratioP2
1765;SDS011;880;52.452;8.656;2022-10-19T00:01:17;13.13;;;6.20;;
1765;SDS011;880;52.452;8.656;2022-10-19T00:03:50;6.63;;;5.97;;
1765;SDS011;880;52.452;8.656;2022-10-19T00:06:20;6.83;;;5.50;;
1765;SDS011;880;52.452;8.656;2022-10-19T00:09:01;9.90;;;5.70;;
1765;SDS011;880;52.452;8.656;2022-10-19T00:11:35;11.20;;;5.73;;
1765;SDS011;880;52.452;8.656;2022-10-19T00:14:06;9.87;;;5.40;;
1765;SDS011;880;52.452;8.656;2022-10-19T00:16:36;12.40;;;6.13;;
1765;SDS011;880;52.452;8.656;2022-10-19T00:19:06;10.43;;;5.50;;
1765;SDS011;880;52.452;8.656;2022-10-19T00:21:37;5.83;;;5.10;;
1765;SDS011;880;52.452;8.656;2022-10-19T00:24:05;8.80;;;6.57;;
1765;SDS011;880;52.452;8.656;2022-10-19T00:26:32;7.43;;;6.00;;
1765;SDS011;880;52.452;8.656;2022-10-19T00:29:00;6.53;;;5.30;;
1765;SDS011;880;52.452;8.656;2022-10-19T00:31:27;5.90;;;4.77;;
1765;SDS011;880;52.452;8.656;2022-10-19T00:33:54;12.50;;;6.10;;
1765;SDS011;880;52.452;8.656;2022-10-19T00:36:24;6.23;;;5.03;;
1765;SDS011;880;52.452;8.656;2022-10-19T00:39:00;9.40;;;5.70;;
1765;SDS011;880;52.452;8.656;2022-10-19T00:41:33;7.90;;;5.27;;
1765;SDS011;880;52.452;8.656;2022-10-19T00:46:39;6.73;;;4.50;;
1765;SDS011;880;52.452;8.656;2022-10-19T00:49:19;9.53;;;5.40;;
1765;SDS011;880;52.452;8.656;2022-10-19T00:51:54;5.67;;;4.70;;
1765;SDS011;880;52.452;8.656;2022-10-19T00:54:27;7.27;;;5.60;;
1765;SDS011;880;52.452;8.656;2022-10-19T00:56:57;5.73;;;5.20;;
1765;SDS011;880;52.452;8.656;2022-10-19T00:59:25;6.93;;;5.57;;
1765;SDS011;880;52.452;8.656;2022-10-19T01:01:53;6.60;;;5.60;;
1765;SDS011;880;52.452;8.656;2022-10-19T01:04:21;6.13;;;5.50;;
1765;SDS011;880;52.452;8.656;2022-10-19T01:06:51;7.60;;;6.10;;
1765;SDS011;880;52.452;8.656;2022-10-19T01:09:19;8.63;;;5.40;;
1765;SDS011;880;52.452;8.656;2022-10-19T01:11:57;5.17;;;4.60;;
1765;SDS011;880;52.452;8.656;2022-10-19T01:17:37;6.43;;;5.50;;
1765;SDS011;880;52.452;8.656;2022-10-19T01:26:35;7.20;;;5.00;;
1765;SDS011;880;52.452;8.656;2022-10-19T01:31:59;5.43;;;4.23;;
1765;SDS011;880;52.452;8.656;2022-10-19T01:34:57;7.33;;;4.70;;
1765;SDS011;880;52.452;8.656;2022-10-19T01:37:45;8.20;;;4.80;;
1765;SDS011;880;52.452;8.656;2022-10-19T01:40:25;5.33;;;4.80;;
1765;SDS011;880;52.452;8.656;2022-10-19T01:43:01;5.13;;;4.63;;
1765;SDS011;880;52.452;8.656;2022-10-19T01:48:09;6.77;;;4.13;;
1765;SDS011;880;52.452;8.656;2022-10-19T01:51:02;5.33;;;4.80;;
1765;SDS011;880;52.452;8.656;2022-10-19T01:53:39;8.77;;;4.90;;
1765;SDS011;880;52.452;8.656;2022-10-19T01:56:11;6.80;;;5.13;;
1765;SDS011;880;52.452;8.656;2022-10-19T01:58:40;8.33;;;5.70;;
1765;SDS011;880;52.452;8.656;2022-10-19T02:01:10;5.53;;;4.40;;
1765;SDS011;880;52.452;8.656;2022-10-19T02:03:46;7.17;;;4.80;;
1765;SDS011;880;52.452;8.656;2022-10-19T02:06:15;8.03;;;5.03;;
1765;SDS011;880;52.452;8.656;2022-10-19T02:08:46;9.30;;;5.40;;
1765;SDS011;880;52.452;8.656;2022-10-19T02:11:16;5.33;;;4.87;;
1765;SDS011;880;52.452;8.656;2022-10-19T02:13:45;5.73;;;4.90;;
1765;SDS011;880;52.452;8.656;2022-10-19T02:16:19;6.87;;;4.93;;
1765;SDS011;880;52.452;8.656;2022-10-19T02:18:54;7.50;;;5.13;;
1765;SDS011;880;52.452;8.656;2022-10-19T02:21:23;5.63;;;4.57;;
1765;SDS011;880;52.452;8.656;2022-10-19T02:23:52;8.60;;;5.67;;
1765;SDS011;880;52.452;8.656;2022-10-19T02:26:19;5.43;;;4.80;;
1765;SDS011;880;52.452;8.656;2022-10-19T02:28:47;8.03;;;5.00;;
1765;SDS011;880;52.452;8.656;2022-10-19T02:31:15;5.07;;;4.57;;
1765;SDS011;880;52.452;8.656;2022-10-19T02:33:42;6.80;;;5.83;;
1765;SDS011;880;52.452;8.656;2022-10-19T02:36:09;6.53;;;5.07;;
1765;SDS011;880;52.452;8.656;2022-10-19T02:38:36;5.73;;;5.20;;
1765;SDS011;880;52.452;8.656;2022-10-19T02:41:51;9.37;;;5.40;;
1765;SDS011;880;52.452;8.656;2022-10-19T02:44:08;9.77;;;5.70;;
1765;SDS011;880;52.452;8.656;2022-10-19T02:46:49;6.03;;;5.30;;
1765;SDS011;880;52.452;8.656;2022-10-19T02:49:22;10.60;;;6.20;;
1765;SDS011;880;52.452;8.656;2022-10-19T02:51:58;6.83;;;5.30;;
1765;SDS011;880;52.452;8.656;2022-10-19T02:54:27;7.40;;;5.90;;
1765;SDS011;880;52.452;8.656;2022-10-19T02:56:55;5.70;;;5.30;;
1765;SDS011;880;52.452;8.656;2022-10-19T02:59:23;7.37;;;4.90;;
1765;SDS011;880;52.452;8.656;2022-10-19T03:01:50;7.67;;;5.27;;
1765;SDS011;880;52.452;8.656;2022-10-19T03:04:17;11.30;;;5.83;;
1765;SDS011;880;52.452;8.656;2022-10-19T03:06:45;6.20;;;5.70;;
1765;SDS011;880;52.452;8.656;2022-10-19T03:09:12;7.57;;;5.27;;
1765;SDS011;880;52.452;8.656;2022-10-19T03:11:39;6.17;;;4.70;;
1765;SDS011;880;52.452;8.656;2022-10-19T03:14:06;5.50;;;4.90;;
1765;SDS011;880;52.452;8.656;2022-10-19T03:16:33;4.90;;;4.60;;
1765;SDS011;880;52.452;8.656;2022-10-19T03:19:00;6.20;;;5.10;;
1765;SDS011;880;52.452;8.656;2022-10-19T03:21:27;6.30;;;5.17;;
1765;SDS011;880;52.452;8.656;2022-10-19T03:23:54;5.40;;;4.63;;
1765;SDS011;880;52.452;8.656;2022-10-19T03:26:21;5.90;;;5.40;;
1765;SDS011;880;52.452;8.656;2022-10-19T03:28:48;7.07;;;4.83;;
1765;SDS011;880;52.452;8.656;2022-10-19T03:31:15;9.03;;;5.40;;
1765;SDS011;880;52.452;8.656;2022-10-19T03:33:42;8.10;;;5.03;;
1765;SDS011;880;52.452;8.656;2022-10-19T03:38:54;9.30;;;5.77;;
1765;SDS011;880;52.452;8.656;2022-10-19T03:41:24;6.33;;;4.83;;
1765;SDS011;880;52.452;8.656;2022-10-19T03:43:55;6.03;;;5.53;;
1765;SDS011;880;52.452;8.656;2022-10-19T03:46:23;8.30;;;5.67;;
1765;SDS011;880;52.452;8.656;2022-10-19T03:48:50;8.80;;;4.93;;
1765;SDS011;880;52.452;8.656;2022-10-19T03:51:19;7.37;;;5.50;;
1765;SDS011;880;52.452;8.656;2022-10-19T03:53:53;8.53;;;5.90;;
1765;SDS011;880;52.452;8.656;2022-10-19T03:56:29;7.23;;;6.20;;
1765;SDS011;880;52.452;8.656;2022-10-19T03:58:58;9.00;;;6.20;;
1765;SDS011;880;52.452;8.656;2022-10-19T04:01:37;6.03;;;5.23;;
1765;SDS011;880;52.452;8.656;2022-10-19T04:04:10;7.53;;;5.87;;
1765;SDS011;880;52.452;8.656;2022-10-19T04:06:41;7.05;;;5.90;;
1765;SDS011;880;52.452;8.656;2022-10-19T04:09:11;6.87;;;5.57;;
1765;SDS011;880;52.452;8.656;2022-10-19T04:11:41;8.40;;;6.10;;
1765;SDS011;880;52.452;8.656;2022-10-19T04:14:09;6.87;;;6.17;;
1765;SDS011;880;52.452;8.656;2022-10-19T04:16:57;6.00;;;5.50;;
1765;SDS011;880;52.452;8.656;2022-10-19T04:19:24;6.73;;;6.07;;
1765;SDS011;880;52.452;8.656;2022-10-19T04:21:51;6.90;;;6.10;;
1765;SDS011;880;52.452;8.656;2022-10-19T04:24:18;6.73;;;6.03;;
1765;SDS011;880;52.452;8.656;2022-10-19T04:26:47;7.60;;;5.80;;
1765;SDS011;880;52.452;8.656;2022-10-19T04:29:20;6.33;;;5.73;;
1765;SDS011;880;52.452;8.656;2022-10-19T04:31:55;6.40;;;5.90;;
1765;SDS011;880;52.452;8.656;2022-10-19T04:34:22;6.77;;;5.97;;
1765;SDS011;880;52.452;8.656;2022-10-19T04:36:49;7.17;;;5.73;;
1765;SDS011;880;52.452;8.656;2022-10-19T04:39:16;7.00;;;6.30;;
1765;SDS011;880;52.452;8.656;2022-10-19T04:41:43;7.50;;;5.77;;
1765;SDS011;880;52.452;8.656;2022-10-19T04:44:10;7.93;;;5.40;;
1765;SDS011;880;52.452;8.656;2022-10-19T04:46:37;6.77;;;5.90;;
1765;SDS011;880;52.452;8.656;2022-10-19T04:49:04;6.43;;;5.83;;
1765;SDS011;880;52.452;8.656;2022-10-19T04:51:32;8.57;;;5.90;;
1765;SDS011;880;52.452;8.656;2022-10-19T04:54:00;13.20;;;6.00;;
1765;SDS011;880;52.452;8.656;2022-10-19T04:56:28;7.33;;;5.77;;
1765;SDS011;880;52.452;8.656;2022-10-19T04:58:58;6.43;;;5.83;;
1765;SDS011;880;52.452;8.656;2022-10-19T05:01:27;8.10;;;5.40;;
1765;SDS011;880;52.452;8.656;2022-10-19T05:03:57;7.00;;;6.40;;
1765;SDS011;880;52.452;8.656;2022-10-19T05:06:27;6.60;;;6.10;;
1765;SDS011;880;52.452;8.656;2022-10-19T05:08:55;6.83;;;6.13;;
1765;SDS011;880;52.452;8.656;2022-10-19T05:11:22;5.87;;;5.37;;
1765;SDS011;880;52.452;8.656;2022-10-19T05:13:50;6.60;;;6.00;;
1765;SDS011;880;52.452;8.656;2022-10-19T05:16:17;9.70;;;7.25;;
1765;SDS011;880;52.452;8.656;2022-10-19T05:18:47;7.67;;;6.87;;
1765;SDS011;880;52.452;8.656;2022-10-19T05:21:24;11.70;;;6.27;;
1765;SDS011;880;52.452;8.656;2022-10-19T05:23:54;7.00;;;6.30;;
1765;SDS011;880;52.452;8.656;2022-10-19T05:26:23;10.83;;;7.83;;
1765;SDS011;880;52.452;8.656;2022-10-19T05:28:53;11.27;;;7.30;;
1765;SDS011;880;52.452;8.656;2022-10-19T05:31:28;6.93;;;6.30;;
1765;SDS011;880;52.452;8.656;2022-10-19T05:33:58;9.37;;;6.73;;
1765;SDS011;880;52.452;8.656;2022-10-19T05:36:27;6.90;;;6.30;;
1765;SDS011;880;52.452;8.656;2022-10-19T05:39:00;6.70;;;5.93;;
1765;SDS011;880;52.452;8.656;2022-10-19T05:41:33;12.70;;;6.47;;
1765;SDS011;880;52.452;8.656;2022-10-19T05:44:00;8.20;;;6.50;;
1765;SDS011;880;52.452;8.656;2022-10-19T05:46:29;7.40;;;6.80;;
1765;SDS011;880;52.452;8.656;2022-10-19T05:48:57;9.73;;;6.90;;
1765;SDS011;880;52.452;8.656;2022-10-19T05:51:25;6.63;;;6.03;;
1765;SDS011;880;52.452;8.656;2022-10-19T05:53:54;6.30;;;5.70;;
1765;SDS011;880;52.452;8.656;2022-10-19T05:56:22;8.90;;;6.43;;
1765;SDS011;880;52.452;8.656;2022-10-19T05:58:54;8.37;;;6.23;;
1765;SDS011;880;52.452;8.656;2022-10-19T06:01:22;7.20;;;6.03;;
1765;SDS011;880;52.452;8.656;2022-10-19T06:03:50;8.90;;;6.40;;
1765;SDS011;880;52.452;8.656;2022-10-19T06:06:19;6.27;;;5.70;;
1765;SDS011;880;52.452;8.656;2022-10-19T06:08:47;7.43;;;6.03;;
1765;SDS011;880;52.452;8.656;2022-10-19T06:13:49;7.43;;;6.40;;
1765;SDS011;880;52.452;8.656;2022-10-19T06:16:18;8.10;;;6.27;;
1765;SDS011;880;52.452;8.656;2022-10-19T06:18:46;10.50;;;6.07;;
1765;SDS011;880;52.452;8.656;2022-10-19T06:21:14;6.47;;;5.70;;
1765;SDS011;880;52.452;8.656;2022-10-19T06:23:48;8.60;;;6.00;;
1765;SDS011;880;52.452;8.656;2022-10-19T06:26:17;8.70;;;5.60;;
1765;SDS011;880;52.452;8.656;2022-10-19T06:28:45;6.00;;;5.40;;
1765;SDS011;880;52.452;8.656;2022-10-19T06:31:13;6.10;;;5.50;;
1765;SDS011;880;52.452;8.656;2022-10-19T06:33:43;9.13;;;6.03;;
1765;SDS011;880;52.452;8.656;2022-10-19T06:36:19;7.83;;;5.43;;
1765;SDS011;880;52.452;8.656;2022-10-19T06:38:48;9.30;;;5.80;;
1765;SDS011;880;52.452;8.656;2022-10-19T06:41:16;7.80;;;5.60;;
1765;SDS011;880;52.452;8.656;2022-10-19T06:43:43;10.17;;;5.60;;
1765;SDS011;880;52.452;8.656;2022-10-19T06:46:20;6.73;;;6.00;;
1765;SDS011;880;52.452;8.656;2022-10-19T06:48:50;6.83;;;5.23;;
1765;SDS011;880;52.452;8.656;2022-10-19T06:51:26;9.57;;;6.00;;
1765;SDS011;880;52.452;8.656;2022-10-19T06:53:55;8.50;;;6.77;;
1765;SDS011;880;52.452;8.656;2022-10-19T06:56:23;6.60;;;6.00;;
1765;SDS011;880;52.452;8.656;2022-10-19T06:58:52;8.70;;;5.80;;
1765;SDS011;880;52.452;8.656;2022-10-19T07:01:20;10.10;;;6.50;;
1765;SDS011;880;52.452;8.656;2022-10-19T07:03:48;8.63;;;6.83;;
1765;SDS011;880;52.452;8.656;2022-10-19T07:06:17;12.77;;;7.10;;
1765;SDS011;880;52.452;8.656;2022-10-19T07:08:44;9.80;;;6.43;;
1765;SDS011;880;52.452;8.656;2022-10-19T07:11:14;11.73;;;5.90;;
1765;SDS011;880;52.452;8.656;2022-10-19T07:13:44;8.23;;;5.20;;
1765;SDS011;880;52.452;8.656;2022-10-19T07:16:13;8.67;;;4.37;;
1765;SDS011;880;52.452;8.656;2022-10-19T07:18:47;8.73;;;4.07;;
1765;SDS011;880;52.452;8.656;2022-10-19T07:21:16;7.97;;;4.00;;
1765;SDS011;880;52.452;8.656;2022-10-19T07:23:45;5.77;;;4.00;;
1765;SDS011;880;52.452;8.656;2022-10-19T07:26:14;7.80;;;3.80;;
1765;SDS011;880;52.452;8.656;2022-10-19T07:28:46;5.13;;;3.50;;
1765;SDS011;880;52.452;8.656;2022-10-19T07:31:15;9.33;;;3.20;;
1765;SDS011;880;52.452;8.656;2022-10-19T07:33:46;5.67;;;3.47;;
1765;SDS011;880;52.452;8.656;2022-10-19T07:36:20;3.33;;;3.03;;
1765;SDS011;880;52.452;8.656;2022-10-19T07:38:48;10.10;;;3.50;;
1765;SDS011;880;52.452;8.656;2022-10-19T07:41:17;5.80;;;2.90;;
1765;SDS011;880;52.452;8.656;2022-10-19T07:43:47;4.73;;;2.73;;
1765;SDS011;880;52.452;8.656;2022-10-19T07:46:16;9.40;;;3.30;;
1765;SDS011;880;52.452;8.656;2022-10-19T07:48:45;11.37;;;3.00;;
1765;SDS011;880;52.452;8.656;2022-10-19T07:51:14;6.10;;;3.03;;
1765;SDS011;880;52.452;8.656;2022-10-19T07:53:42;4.80;;;2.67;;
1765;SDS011;880;52.452;8.656;2022-10-19T07:56:11;8.33;;;2.60;;
1765;SDS011;880;52.452;8.656;2022-10-19T07:58:49;4.20;;;2.70;;
1765;SDS011;880;52.452;8.656;2022-10-19T08:01:24;5.60;;;3.17;;
1765;SDS011;880;52.452;8.656;2022-10-19T08:03:57;7.83;;;2.80;;
1765;SDS011;880;52.452;8.656;2022-10-19T08:06:45;6.70;;;3.00;;
1765;SDS011;880;52.452;8.656;2022-10-19T08:09:12;6.87;;;2.53;;
1765;SDS011;880;52.452;8.656;2022-10-19T08:12:00;7.50;;;3.13;;
1765;SDS011;880;52.452;8.656;2022-10-19T08:14:27;7.77;;;3.20;;
1765;SDS011;880;52.452;8.656;2022-10-19T08:16:54;3.47;;;2.60;;
1765;SDS011;880;52.452;8.656;2022-10-19T08:19:21;6.30;;;3.07;;
1765;SDS011;880;52.452;8.656;2022-10-19T08:21:49;5.00;;;2.50;;
1765;SDS011;880;52.452;8.656;2022-10-19T08:24:16;4.50;;;2.23;;
1765;SDS011;880;52.452;8.656;2022-10-19T08:26:45;7.00;;;2.30;;
1765;SDS011;880;52.452;8.656;2022-10-19T08:29:13;13.07;;;2.90;;
1765;SDS011;880;52.452;8.656;2022-10-19T08:31:43;9.00;;;2.93;;
1765;SDS011;880;52.452;8.656;2022-10-19T08:34:12;6.70;;;2.27;;
1765;SDS011;880;52.452;8.656;2022-10-19T08:36:40;6.03;;;2.00;;
1765;SDS011;880;52.452;8.656;2022-10-19T08:39:12;2.83;;;1.60;;
1765;SDS011;880;52.452;8.656;2022-10-19T08:44:30;7.17;;;2.00;;
1765;SDS011;880;52.452;8.656;2022-10-19T08:52:47;6.17;;;1.87;;
1765;SDS011;880;52.452;8.656;2022-10-19T08:55:50;4.27;;;1.77;;
1765;SDS011;880;52.452;8.656;2022-10-19T08:59:22;4.63;;;1.87;;
1765;SDS011;880;52.452;8.656;2022-10-19T09:02:20;8.50;;;2.53;;
1765;SDS011;880;52.452;8.656;2022-10-19T09:05:15;6.73;;;2.20;;
1765;SDS011;880;52.452;8.656;2022-10-19T09:07:54;3.13;;;1.47;;
1765;SDS011;880;52.452;8.656;2022-10-19T09:10:22;3.93;;;1.60;;
1765;SDS011;880;52.452;8.656;2022-10-19T09:13:14;4.83;;;1.50;;
1765;SDS011;880;52.452;8.656;2022-10-19T09:16:17;6.20;;;1.50;;
1765;SDS011;880;52.452;8.656;2022-10-19T09:18:46;3.57;;;1.27;;
1765;SDS011;880;52.452;8.656;2022-10-19T09:21:15;4.23;;;1.47;;
1765;SDS011;880;52.452;8.656;2022-10-19T09:24:04;4.53;;;1.63;;
1765;SDS011;880;52.452;8.656;2022-10-19T09:26:57;5.40;;;2.00;;
1765;SDS011;880;52.452;8.656;2022-10-19T09:29:28;6.87;;;2.43;;
1765;SDS011;880;52.452;8.656;2022-10-19T09:32:26;4.97;;;3.03;;
1765;SDS011;880;52.452;8.656;2022-10-19T09:35:00;3.60;;;3.30;;
1765;SDS011;880;52.452;8.656;2022-10-19T09:37:49;3.60;;;2.60;;
1765;SDS011;880;52.452;8.656;2022-10-19T09:40:18;4.70;;;2.23;;
1765;SDS011;880;52.452;8.656;2022-10-19T09:42:50;7.00;;;2.20;;
1765;SDS011;880;52.452;8.656;2022-10-19T09:45:28;4.13;;;1.77;;
1765;SDS011;880;52.452;8.656;2022-10-19T09:51:11;6.83;;;2.67;;
1765;SDS011;880;52.452;8.656;2022-10-19T09:53:43;3.00;;;1.30;;
1765;SDS011;880;52.452;8.656;2022-10-19T09:56:24;5.23;;;1.70;;
1765;SDS011;880;52.452;8.656;2022-10-19T09:58:53;5.17;;;1.80;;
1765;SDS011;880;52.452;8.656;2022-10-19T10:01:34;4.03;;;2.47;;
1765;SDS011;880;52.452;8.656;2022-10-19T10:04:10;2.73;;;1.67;;
1765;SDS011;880;52.452;8.656;2022-10-19T10:06:42;4.20;;;1.50;;
1765;SDS011;880;52.452;8.656;2022-10-19T10:09:16;6.30;;;2.00;;
1765;SDS011;880;52.452;8.656;2022-10-19T10:11:48;5.47;;;1.80;;
1765;SDS011;880;52.452;8.656;2022-10-19T10:14:21;3.93;;;2.73;;
1765;SDS011;880;52.452;8.656;2022-10-19T10:17:03;2.60;;;2.40;;
1765;SDS011;880;52.452;8.656;2022-10-19T10:20:33;2.30;;;2.10;;
1765;SDS011;880;52.452;8.656;2022-10-19T10:22:59;7.20;;;1.90;;
1765;SDS011;880;52.452;8.656;2022-10-19T10:25:32;3.47;;;2.10;;
1765;SDS011;880;52.452;8.656;2022-10-19T10:30:43;4.10;;;1.57;;
1765;SDS011;880;52.452;8.656;2022-10-19T10:33:13;3.63;;;1.30;;
1765;SDS011;880;52.452;8.656;2022-10-19T10:36:06;2.13;;;1.10;;
1765;SDS011;880;52.452;8.656;2022-10-19T10:38:42;3.70;;;1.73;;
1765;SDS011;880;52.452;8.656;2022-10-19T10:41:16;4.13;;;1.50;;
1765;SDS011;880;52.452;8.656;2022-10-19T10:43:50;2.70;;;1.27;;
1765;SDS011;880;52.452;8.656;2022-10-19T10:46:35;1.83;;;1.00;;
1765;SDS011;880;52.452;8.656;2022-10-19T10:49:27;5.50;;;1.47;;
1765;SDS011;880;52.452;8.656;2022-10-19T10:52:00;4.80;;;1.13;;
1765;SDS011;880;52.452;8.656;2022-10-19T10:54:32;2.47;;;1.13;;
1765;SDS011;880;52.452;8.656;2022-10-19T11:02:39;3.67;;;1.40;;
1765;SDS011;880;52.452;8.656;2022-10-19T11:05:27;5.10;;;1.30;;
1765;SDS011;880;52.452;8.656;2022-10-19T11:11:00;3.83;;;1.50;;
1765;SDS011;880;52.452;8.656;2022-10-19T11:16:30;4.03;;;1.20;;
1765;SDS011;880;52.452;8.656;2022-10-19T11:19:17;7.00;;;1.00;;
1765;SDS011;880;52.452;8.656;2022-10-19T11:30:19;2.40;;;1.37;;
1765;SDS011;880;52.452;8.656;2022-10-19T11:33:12;3.23;;;1.10;;
1765;SDS011;880;52.452;8.656;2022-10-19T11:36:10;6.83;;;1.33;;
1765;SDS011;880;52.452;8.656;2022-10-19T11:42:03;3.20;;;1.10;;
1765;SDS011;880;52.452;8.656;2022-10-19T11:45:21;2.20;;;1.20;;
1765;SDS011;880;52.452;8.656;2022-10-19T11:48:02;4.43;;;2.13;;
1765;SDS011;880;52.452;8.656;2022-10-19T11:53:53;6.83;;;1.70;;
1765;SDS011;880;52.452;8.656;2022-10-19T11:56:55;3.70;;;1.47;;
1765;SDS011;880;52.452;8.656;2022-10-19T11:59:49;1.73;;;1.20;;
1765;SDS011;880;52.452;8.656;2022-10-19T12:05:41;2.73;;;1.37;;
1765;SDS011;880;52.452;8.656;2022-10-19T12:14:02;4.13;;;1.37;;
1765;SDS011;880;52.452;8.656;2022-10-19T12:16:37;3.83;;;1.27;;
1765;SDS011;880;52.452;8.656;2022-10-19T12:19:11;3.00;;;1.23;;
1765;SDS011;880;52.452;8.656;2022-10-19T12:21:47;4.30;;;1.30;;
1765;SDS011;880;52.452;8.656;2022-10-19T12:24:20;3.33;;;1.30;;
1765;SDS011;880;52.452;8.656;2022-10-19T12:26:50;4.30;;;1.60;;
1765;SDS011;880;52.452;8.656;2022-10-19T12:29:34;4.10;;;2.40;;
1765;SDS011;880;52.452;8.656;2022-10-19T12:32:06;4.33;;;3.10;;
1765;SDS011;880;52.452;8.656;2022-10-19T12:34:42;4.00;;;1.73;;
1765;SDS011;880;52.452;8.656;2022-10-19T12:37:40;1.57;;;1.47;;
1765;SDS011;880;52.452;8.656;2022-10-19T12:43:11;3.40;;;1.33;;
1765;SDS011;880;52.452;8.656;2022-10-19T12:49:32;3.30;;;1.30;;
1765;SDS011;880;52.452;8.656;2022-10-19T12:51:56;2.60;;;1.63;;
1765;SDS011;880;52.452;8.656;2022-10-19T12:54:26;4.37;;;2.67;;
1765;SDS011;880;52.452;8.656;2022-10-19T12:56:57;2.20;;;2.00;;
1765;SDS011;880;52.452;8.656;2022-10-19T12:59:28;2.17;;;1.80;;
1765;SDS011;880;52.452;8.656;2022-10-19T13:01:58;4.93;;;2.30;;
1765;SDS011;880;52.452;8.656;2022-10-19T13:04:30;2.73;;;1.43;;
1765;SDS011;880;52.452;8.656;2022-10-19T13:07:00;2.60;;;1.23;;
1765;SDS011;880;52.452;8.656;2022-10-19T13:09:37;2.27;;;1.50;;
1765;SDS011;880;52.452;8.656;2022-10-19T13:17:38;2.43;;;1.33;;
1765;SDS011;880;52.452;8.656;2022-10-19T13:22:40;2.90;;;2.10;;
1765;SDS011;880;52.452;8.656;2022-10-19T13:25:18;4.00;;;2.20;;
1765;SDS011;880;52.452;8.656;2022-10-19T13:36:04;5.80;;;2.70;;
1765;SDS011;880;52.452;8.656;2022-10-19T13:38:34;5.47;;;2.87;;
1765;SDS011;880;52.452;8.656;2022-10-19T14:01:28;2.83;;;2.40;;
1765;SDS011;880;52.452;8.656;2022-10-19T14:04:44;6.13;;;2.40;;
1765;SDS011;880;52.452;8.656;2022-10-19T14:07:25;4.77;;;2.57;;
1765;SDS011;880;52.452;8.656;2022-10-19T14:10:06;5.43;;;3.40;;
1765;SDS011;880;52.452;8.656;2022-10-19T14:12:44;3.27;;;2.73;;
1765;SDS011;880;52.452;8.656;2022-10-19T14:15:20;3.60;;;3.40;;
1765;SDS011;880;52.452;8.656;2022-10-19T14:18:00;4.83;;;2.90;;
1765;SDS011;880;52.452;8.656;2022-10-19T14:23:16;3.23;;;2.20;;
1765;SDS011;880;52.452;8.656;2022-10-19T14:25:48;9.03;;;2.90;;
1765;SDS011;880;52.452;8.656;2022-10-19T14:28:17;4.60;;;2.13;;
1765;SDS011;880;52.452;8.656;2022-10-19T14:30:45;2.93;;;2.63;;
1765;SDS011;880;52.452;8.656;2022-10-19T14:33:28;4.40;;;2.17;;
1765;SDS011;880;52.452;8.656;2022-10-19T14:36:01;6.67;;;2.67;;
1765;SDS011;880;52.452;8.656;2022-10-19T14:38:34;6.93;;;3.13;;
1765;SDS011;880;52.452;8.656;2022-10-19T14:41:20;3.27;;;2.13;;
1765;SDS011;880;52.452;8.656;2022-10-19T14:43:56;2.10;;;1.90;;
1765;SDS011;880;52.452;8.656;2022-10-19T14:48:59;4.63;;;2.57;;
1765;SDS011;880;52.452;8.656;2022-10-19T14:51:37;3.97;;;2.10;;
1765;SDS011;880;52.452;8.656;2022-10-19T14:54:10;4.10;;;2.30;;
1765;SDS011;880;52.452;8.656;2022-10-19T14:57:07;2.90;;;2.10;;
1765;SDS011;880;52.452;8.656;2022-10-19T14:59:52;4.57;;;2.20;;
1765;SDS011;880;52.452;8.656;2022-10-19T15:05:05;3.70;;;2.30;;
1765;SDS011;880;52.452;8.656;2022-10-19T15:07:45;4.57;;;2.43;;
1765;SDS011;880;52.452;8.656;2022-10-19T15:10:23;3.33;;;1.97;;
1765;SDS011;880;52.452;8.656;2022-10-19T15:13:06;2.63;;;2.10;;
1765;SDS011;880;52.452;8.656;2022-10-19T15:15:59;4.27;;;2.33;;
1765;SDS011;880;52.452;8.656;2022-10-19T15:18:32;2.17;;;2.00;;
1765;SDS011;880;52.452;8.656;2022-10-19T15:21:18;8.60;;;2.80;;
1765;SDS011;880;52.452;8.656;2022-10-19T15:23:50;2.27;;;2.07;;
1765;SDS011;880;52.452;8.656;2022-10-19T15:26:19;2.17;;;2.07;;
1765;SDS011;880;52.452;8.656;2022-10-19T15:29:06;2.40;;;2.20;;
1765;SDS011;880;52.452;8.656;2022-10-19T15:31:35;2.53;;;2.43;;
1765;SDS011;880;52.452;8.656;2022-10-19T15:34:02;3.20;;;2.90;;
1765;SDS011;880;52.452;8.656;2022-10-19T15:36:30;5.83;;;2.60;;
1765;SDS011;880;52.452;8.656;2022-10-19T15:41:51;3.60;;;2.30;;
1765;SDS011;880;52.452;8.656;2022-10-19T15:52:16;3.70;;;3.30;;
1765;SDS011;880;52.452;8.656;2022-10-19T15:54:58;5.57;;;2.80;;
1765;SDS011;880;52.452;8.656;2022-10-19T15:57:27;5.13;;;2.60;;
1765;SDS011;880;52.452;8.656;2022-10-19T16:00:09;3.87;;;2.30;;
1765;SDS011;880;52.452;8.656;2022-10-19T16:02:42;3.90;;;2.57;;
1765;SDS011;880;52.452;8.656;2022-10-19T16:05:09;5.53;;;2.67;;
1765;SDS011;880;52.452;8.656;2022-10-19T16:07:37;5.70;;;2.43;;
1765;SDS011;880;52.452;8.656;2022-10-19T16:10:07;3.00;;;2.80;;
1765;SDS011;880;52.452;8.656;2022-10-19T16:12:41;3.30;;;3.00;;
1765;SDS011;880;52.452;8.656;2022-10-19T16:15:15;6.73;;;3.53;;
1765;SDS011;880;52.452;8.656;2022-10-19T16:17:49;3.13;;;2.53;;
1765;SDS011;880;52.452;8.656;2022-10-19T16:20:22;3.67;;;2.57;;
1765;SDS011;880;52.452;8.656;2022-10-19T16:22:51;6.60;;;2.80;;
1765;SDS011;880;52.452;8.656;2022-10-19T16:25:19;3.00;;;2.67;;
1765;SDS011;880;52.452;8.656;2022-10-19T16:27:46;3.37;;;2.60;;
1765;SDS011;880;52.452;8.656;2022-10-19T16:30:13;5.00;;;3.10;;
1765;SDS011;880;52.452;8.656;2022-10-19T16:32:40;3.27;;;3.00;;
1765;SDS011;880;52.452;8.656;2022-10-19T16:35:12;4.63;;;2.97;;
1765;SDS011;880;52.452;8.656;2022-10-19T16:37:39;3.17;;;2.87;;
1765;SDS011;880;52.452;8.656;2022-10-19T16:40:06;3.37;;;3.00;;
1765;SDS011;880;52.452;8.656;2022-10-19T16:42:35;4.30;;;2.97;;
1765;SDS011;880;52.452;8.656;2022-10-19T16:45:03;4.77;;;2.80;;
1765;SDS011;880;52.452;8.656;2022-10-19T16:47:30;3.87;;;2.67;;
1765;SDS011;880;52.452;8.656;2022-10-19T16:49:58;5.03;;;4.03;;
1765;SDS011;880;52.452;8.656;2022-10-19T16:52:27;4.07;;;3.60;;
1765;SDS011;880;52.452;8.656;2022-10-19T16:54:57;14.70;;;7.43;;
1765;SDS011;880;52.452;8.656;2022-10-19T16:57:24;12.33;;;7.57;;
1765;SDS011;880;52.452;8.656;2022-10-19T16:59:52;8.67;;;5.77;;
1765;SDS011;880;52.452;8.656;2022-10-19T17:02:19;7.73;;;6.07;;
1765;SDS011;880;52.452;8.656;2022-10-19T17:04:47;8.00;;;7.20;;
1765;SDS011;880;52.452;8.656;2022-10-19T17:07:14;8.27;;;4.33;;
1765;SDS011;880;52.452;8.656;2022-10-19T17:09:42;5.33;;;4.83;;
1765;SDS011;880;52.452;8.656;2022-10-19T17:12:09;5.27;;;4.77;;
1765;SDS011;880;52.452;8.656;2022-10-19T17:14:37;5.60;;;3.60;;
1765;SDS011;880;52.452;8.656;2022-10-19T17:17:07;5.97;;;3.27;;
1765;SDS011;880;52.452;8.656;2022-10-19T17:19:35;5.40;;;3.90;;
1765;SDS011;880;52.452;8.656;2022-10-19T17:22:03;5.40;;;3.50;;
1765;SDS011;880;52.452;8.656;2022-10-19T17:24:30;7.40;;;3.30;;
1765;SDS011;880;52.452;8.656;2022-10-19T17:26:59;3.93;;;3.57;;
1765;SDS011;880;52.452;8.656;2022-10-19T17:29:28;5.10;;;3.43;;
1765;SDS011;880;52.452;8.656;2022-10-19T17:31:56;7.30;;;3.90;;
1765;SDS011;880;52.452;8.656;2022-10-19T17:34:24;3.83;;;3.50;;
1765;SDS011;880;52.452;8.656;2022-10-19T17:36:52;4.03;;;3.63;;
1765;SDS011;880;52.452;8.656;2022-10-19T17:39:20;5.10;;;3.60;;
1765;SDS011;880;52.452;8.656;2022-10-19T17:41:55;5.70;;;4.07;;
1765;SDS011;880;52.452;8.656;2022-10-19T17:44:27;5.30;;;3.70;;
1765;SDS011;880;52.452;8.656;2022-10-19T17:46:55;5.47;;;3.87;;
1765;SDS011;880;52.452;8.656;2022-10-19T17:49:23;6.60;;;4.30;;
1765;SDS011;880;52.452;8.656;2022-10-19T17:51:50;5.33;;;4.93;;
1765;SDS011;880;52.452;8.656;2022-10-19T17:54:18;8.13;;;4.87;;
1765;SDS011;880;52.452;8.656;2022-10-19T17:56:45;6.13;;;4.70;;
1765;SDS011;880;52.452;8.656;2022-10-19T17:59:13;5.97;;;5.37;;
1765;SDS011;880;52.452;8.656;2022-10-19T18:01:40;10.57;;;5.57;;
1765;SDS011;880;52.452;8.656;2022-10-19T18:04:07;6.83;;;5.37;;
1765;SDS011;880;52.452;8.656;2022-10-19T18:06:35;9.13;;;5.77;;
1765;SDS011;880;52.452;8.656;2022-10-19T18:09:04;13.23;;;6.00;;
1765;SDS011;880;52.452;8.656;2022-10-19T18:11:35;9.83;;;6.80;;
1765;SDS011;880;52.452;8.656;2022-10-19T18:14:06;9.43;;;7.17;;
1765;SDS011;880;52.452;8.656;2022-10-19T18:16:39;9.73;;;6.30;;
1765;SDS011;880;52.452;8.656;2022-10-19T18:19:11;6.53;;;5.50;;
1765;SDS011;880;52.452;8.656;2022-10-19T18:21:43;5.80;;;5.40;;